sensor_id;sensor_type;location;lat;lon;timestamp;temperature;humidity
28358;DHT22;15605;48.114;11.522;2024-01-10T00:00:40;9.20;37.90
28358;DHT22;15605;48.114;11.522;2024-01-10T00:03:23;9.20;37.90
28358;DHT22;15605;48.114;11.522;2024-01-10T00:06:02;9.20;38.00
28358;DHT22;15605;48.114;11.522;2024-01-10T00:08:36;9.20;38.00
28358;DHT22;15605;48.114;11.522;2024-01-10T00:11:13;9.20;38.20
28358;DHT22;15605;48.114;11.522;2024-01-10T00:13:48;9.20;38.20
28358;DHT22;15605;48.114;11.522;2024-01-10T00:16:21;9.10;38.30
28358;DHT22;15605;48.114;11.522;2024-01-10T00:18:58;9.10;38.40
28358;DHT22;15605;48.114;11.522;2024-01-10T00:21:36;9.20;38.50
28358;DHT22;15605;48.114;11.522;2024-01-10T00:24:13;9.20;38.60
28358;DHT22;15605;48.114;11.522;2024-01-10T00:26:51;9.20;38.50
28358;DHT22;15605;48.114;11.522;2024-01-10T00:29:27;9.20;38.60
28358;DHT22;15605;48.114;11.522;2024-01-10T00:32:01;9.20;38.70
28358;DHT22;15605;48.114;11.522;2024-01-10T00:34:35;9.20;38.80
28358;DHT22;15605;48.114;11.522;2024-01-10T00:37:12;9.20;38.80
28358;DHT22;15605;48.114;11.522;2024-01-10T00:39:42;9.20;38.80
28358;DHT22;15605;48.114;11.522;2024-01-10T00:42:18;9.20;38.90
28358;DHT22;15605;48.114;11.522;2024-01-10T00:44:55;9.20;39.00
28358;DHT22;15605;48.114;11.522;2024-01-10T00:47:30;9.20;39.00
28358;DHT22;15605;48.114;11.522;2024-01-10T00:50:08;9.10;39.00
28358;DHT22;15605;48.114;11.522;2024-01-10T00:52:42;9.20;39.10
28358;DHT22;15605;48.114;11.522;2024-01-10T00:55:18;9.20;39.10
28358;DHT22;15605;48.114;11.522;2024-01-10T00:57:53;9.20;39.10
28358;DHT22;15605;48.114;11.522;2024-01-10T01:00:28;9.20;39.20
28358;DHT22;15605;48.114;11.522;2024-01-10T01:03:03;9.20;39.20
28358;DHT22;15605;48.114;11.522;2024-01-10T01:05:37;9.20;39.20
28358;DHT22;15605;48.114;11.522;2024-01-10T01:08:10;9.20;39.20
28358;DHT22;15605;48.114;11.522;2024-01-10T01:10:48;9.20;39.30
28358;DHT22;15605;48.114;11.522;2024-01-10T01:13:27;9.20;39.30
28358;DHT22;15605;48.114;11.522;2024-01-10T01:16:05;9.20;39.40
28358;DHT22;15605;48.114;11.522;2024-01-10T01:18:42;9.20;39.40
28358;DHT22;15605;48.114;11.522;2024-01-10T01:21:19;9.20;39.40
28358;DHT22;15605;48.114;11.522;2024-01-10T01:23:55;9.20;39.40
28358;DHT22;15605;48.114;11.522;2024-01-10T01:26:31;9.20;39.50
28358;DHT22;15605;48.114;11.522;2024-01-10T01:29:09;9.20;39.50
28358;DHT22;15605;48.114;11.522;2024-01-10T01:31:45;9.20;39.60
28358;DHT22;15605;48.114;11.522;2024-01-10T01:34:22;9.20;39.60
28358;DHT22;15605;48.114;11.522;2024-01-10T01:36:58;9.20;39.60
28358;DHT22;15605;48.114;11.522;2024-01-10T01:39:33;9.20;39.50
28358;DHT22;15605;48.114;11.522;2024-01-10T01:42:07;9.20;39.60
28358;DHT22;15605;48.114;11.522;2024-01-10T01:44:49;9.20;39.60
28358;DHT22;15605;48.114;11.522;2024-01-10T01:47:26;9.20;39.70
28358;DHT22;15605;48.114;11.522;2024-01-10T01:50:00;9.20;39.70
28358;DHT22;15605;48.114;11.522;2024-01-10T01:52:35;9.20;39.50
28358;DHT22;15605;48.114;11.522;2024-01-10T01:55:17;9.30;39.60
28358;DHT22;15605;48.114;11.522;2024-01-10T01:57:55;9.20;39.60
28358;DHT22;15605;48.114;11.522;2024-01-10T02:00:31;9.20;39.60
28358;DHT22;15605;48.114;11.522;2024-01-10T02:03:08;9.20;39.60
28358;DHT22;15605;48.114;11.522;2024-01-10T02:05:46;9.20;39.60
28358;DHT22;15605;48.114;11.522;2024-01-10T02:08:26;9.20;39.60
28358;DHT22;15605;48.114;11.522;2024-01-10T02:11:02;9.30;39.70
28358;DHT22;15605;48.114;11.522;2024-01-10T02:13:40;9.20;39.70
28358;DHT22;15605;48.114;11.522;2024-01-10T02:19:22;9.20;39.90
28358;DHT22;15605;48.114;11.522;2024-01-10T02:22:02;9.20;39.80
28358;DHT22;15605;48.114;11.522;2024-01-10T02:24:57;9.20;39.80
28358;DHT22;15605;48.114;11.522;2024-01-10T02:27:34;9.20;39.80
28358;DHT22;15605;48.114;11.522;2024-01-10T02:30:14;9.20;39.80
28358;DHT22;15605;48.114;11.522;2024-01-10T02:32:54;9.20;40.00
28358;DHT22;15605;48.114;11.522;2024-01-10T02:35:28;9.20;40.00
28358;DHT22;15605;48.114;11.522;2024-01-10T02:38:08;9.20;39.90
28358;DHT22;15605;48.114;11.522;2024-01-10T02:40:46;9.20;39.90
28358;DHT22;15605;48.114;11.522;2024-01-10T02:43:24;9.20;40.00
28358;DHT22;15605;48.114;11.522;2024-01-10T02:45:57;9.20;40.00
28358;DHT22;15605;48.114;11.522;2024-01-10T02:48:35;9.20;40.00
28358;DHT22;15605;48.114;11.522;2024-01-10T02:51:08;9.20;40.00
28358;DHT22;15605;48.114;11.522;2024-01-10T02:53:44;9.20;40.00
28358;DHT22;15605;48.114;11.522;2024-01-10T02:56:27;9.20;39.90
28358;DHT22;15605;48.114;11.522;2024-01-10T02:59:05;9.20;39.90
28358;DHT22;15605;48.114;11.522;2024-01-10T03:01:44;9.20;39.90
28358;DHT22;15605;48.114;11.522;2024-01-10T03:04:27;9.20;40.00
28358;DHT22;15605;48.114;11.522;2024-01-10T03:07:04;9.20;40.00
28358;DHT22;15605;48.114;11.522;2024-01-10T03:09:40;9.20;40.10
28358;DHT22;15605;48.114;11.522;2024-01-10T03:12:18;9.20;40.10
28358;DHT22;15605;48.114;11.522;2024-01-10T03:14:54;9.20;40.10
28358;DHT22;15605;48.114;11.522;2024-01-10T03:17:26;9.20;40.00
28358;DHT22;15605;48.114;11.522;2024-01-10T03:20:11;9.20;40.00
28358;DHT22;15605;48.114;11.522;2024-01-10T03:22:49;9.30;40.10
28358;DHT22;15605;48.114;11.522;2024-01-10T03:25:25;9.30;40.10
28358;DHT22;15605;48.114;11.522;2024-01-10T03:28:08;9.20;40.10
28358;DHT22;15605;48.114;11.522;2024-01-10T03:30:41;9.20;40.10
28358;DHT22;15605;48.114;11.522;2024-01-10T03:33:15;9.20;40.10
28358;DHT22;15605;48.114;11.522;2024-01-10T03:35:49;9.30;40.20
28358;DHT22;15605;48.114;11.522;2024-01-10T03:38:25;9.20;40.20
28358;DHT22;15605;48.114;11.522;2024-01-10T03:41:00;9.20;40.20
28358;DHT22;15605;48.114;11.522;2024-01-10T03:43:47;9.20;40.30
28358;DHT22;15605;48.114;11.522;2024-01-10T03:46:25;9.20;40.30
28358;DHT22;15605;48.114;11.522;2024-01-10T03:49:01;9.20;40.30
28358;DHT22;15605;48.114;11.522;2024-01-10T03:51:35;9.20;40.30
28358;DHT22;15605;48.114;11.522;2024-01-10T03:54:14;9.20;40.40
28358;DHT22;15605;48.114;11.522;2024-01-10T03:56:54;9.20;40.30
28358;DHT22;15605;48.114;11.522;2024-01-10T03:59:31;9.20;40.40
28358;DHT22;15605;48.114;11.522;2024-01-10T04:02:06;9.10;40.40
28358;DHT22;15605;48.114;11.522;2024-01-10T04:04:40;9.20;40.30
28358;DHT22;15605;48.114;11.522;2024-01-10T04:07:26;9.20;40.40
28358;DHT22;15605;48.114;11.522;2024-01-10T04:10:02;9.20;40.40
28358;DHT22;15605;48.114;11.522;2024-01-10T04:12:39;9.20;40.40
28358;DHT22;15605;48.114;11.522;2024-01-10T04:15:15;9.20;40.30
28358;DHT22;15605;48.114;11.522;2024-01-10T04:17:54;9.20;40.30
28358;DHT22;15605;48.114;11.522;2024-01-10T04:20:32;9.20;40.30
28358;DHT22;15605;48.114;11.522;2024-01-10T04:23:07;9.20;40.30
28358;DHT22;15605;48.114;11.522;2024-01-10T04:25:47;9.20;40.30
28358;DHT22;15605;48.114;11.522;2024-01-10T04:28:21;9.20;40.30
28358;DHT22;15605;48.114;11.522;2024-01-10T04:30:56;9.20;40.30
28358;DHT22;15605;48.114;11.522;2024-01-10T04:33:29;9.20;40.40
28358;DHT22;15605;48.114;11.522;2024-01-10T04:36:07;9.20;40.40
28358;DHT22;15605;48.114;11.522;2024-01-10T04:38:40;9.20;40.50
28358;DHT22;15605;48.114;11.522;2024-01-10T04:41:15;9.20;40.40
28358;DHT22;15605;48.114;11.522;2024-01-10T04:43:55;9.20;40.50
28358;DHT22;15605;48.114;11.522;2024-01-10T04:46:30;9.20;40.50
28358;DHT22;15605;48.114;11.522;2024-01-10T04:49:10;9.20;40.40
28358;DHT22;15605;48.114;11.522;2024-01-10T04:51:46;9.20;40.50
28358;DHT22;15605;48.114;11.522;2024-01-10T04:54:22;9.20;40.50
28358;DHT22;15605;48.114;11.522;2024-01-10T04:56:56;9.20;40.60
28358;DHT22;15605;48.114;11.522;2024-01-10T04:59:29;9.20;40.60
28358;DHT22;15605;48.114;11.522;2024-01-10T05:02:04;9.20;40.50
28358;DHT22;15605;48.114;11.522;2024-01-10T05:04:36;9.20;40.50
28358;DHT22;15605;48.114;11.522;2024-01-10T05:07:11;9.20;40.50
28358;DHT22;15605;48.114;11.522;2024-01-10T05:09:50;9.20;40.60
28358;DHT22;15605;48.114;11.522;2024-01-10T05:12:24;9.20;40.50
28358;DHT22;15605;48.114;11.522;2024-01-10T05:14:58;9.20;40.60
28358;DHT22;15605;48.114;11.522;2024-01-10T05:17:32;9.20;40.60
28358;DHT22;15605;48.114;11.522;2024-01-10T05:20:12;9.20;40.50
28358;DHT22;15605;48.114;11.522;2024-01-10T05:22:58;9.20;40.50
28358;DHT22;15605;48.114;11.522;2024-01-10T05:25:39;9.30;40.50
28358;DHT22;15605;48.114;11.522;2024-01-10T05:28:23;9.20;40.40
28358;DHT22;15605;48.114;11.522;2024-01-10T05:30:57;9.20;40.50
28358;DHT22;15605;48.114;11.522;2024-01-10T05:33:35;9.20;40.50
28358;DHT22;15605;48.114;11.522;2024-01-10T05:36:10;9.20;40.50
28358;DHT22;15605;48.114;11.522;2024-01-10T05:38:48;9.20;40.60
28358;DHT22;15605;48.114;11.522;2024-01-10T05:41:25;9.20;40.70
28358;DHT22;15605;48.114;11.522;2024-01-10T05:44:10;9.20;40.70
28358;DHT22;15605;48.114;11.522;2024-01-10T05:46:45;9.10;40.60
28358;DHT22;15605;48.114;11.522;2024-01-10T05:49:20;9.10;40.70
28358;DHT22;15605;48.114;11.522;2024-01-10T05:51:54;9.10;40.70
28358;DHT22;15605;48.114;11.522;2024-01-10T05:54:31;9.10;40.60
28358;DHT22;15605;48.114;11.522;2024-01-10T05:57:08;9.20;40.70
28358;DHT22;15605;48.114;11.522;2024-01-10T05:59:45;9.20;40.60
28358;DHT22;15605;48.114;11.522;2024-01-10T06:02:26;9.20;40.60
28358;DHT22;15605;48.114;11.522;2024-01-10T06:05:02;9.20;40.50
28358;DHT22;15605;48.114;11.522;2024-01-10T06:07:42;9.20;40.40
28358;DHT22;15605;48.114;11.522;2024-01-10T06:10:18;9.20;40.30
28358;DHT22;15605;48.114;11.522;2024-01-10T06:13:06;9.20;40.10
28358;DHT22;15605;48.114;11.522;2024-01-10T06:15:45;9.20;40.10
28358;DHT22;15605;48.114;11.522;2024-01-10T06:18:30;9.10;40.10
28358;DHT22;15605;48.114;11.522;2024-01-10T06:21:12;9.10;40.10
28358;DHT22;15605;48.114;11.522;2024-01-10T06:23:54;9.10;40.10
28358;DHT22;15605;48.114;11.522;2024-01-10T06:26:31;9.10;40.00
28358;DHT22;15605;48.114;11.522;2024-01-10T06:29:04;9.10;39.90
28358;DHT22;15605;48.114;11.522;2024-01-10T06:31:39;9.10;40.40
28358;DHT22;15605;48.114;11.522;2024-01-10T06:34:13;9.10;39.90
28358;DHT22;15605;48.114;11.522;2024-01-10T06:36:54;9.10;39.80
28358;DHT22;15605;48.114;11.522;2024-01-10T06:39:31;9.10;39.90
28358;DHT22;15605;48.114;11.522;2024-01-10T06:42:06;9.10;39.80
28358;DHT22;15605;48.114;11.522;2024-01-10T06:44:50;9.10;39.80
28358;DHT22;15605;48.114;11.522;2024-01-10T06:47:33;9.00;39.90
28358;DHT22;15605;48.114;11.522;2024-01-10T06:50:10;9.00;39.90
28358;DHT22;15605;48.114;11.522;2024-01-10T06:52:47;9.00;39.90
28358;DHT22;15605;48.114;11.522;2024-01-10T06:55:42;8.90;40.50
28358;DHT22;15605;48.114;11.522;2024-01-10T06:58:16;9.00;39.90
28358;DHT22;15605;48.114;11.522;2024-01-10T07:01:20;8.90;39.90
28358;DHT22;15605;48.114;11.522;2024-01-10T07:04:09;8.90;40.00
28358;DHT22;15605;48.114;11.522;2024-01-10T07:06:56;8.90;40.10
28358;DHT22;15605;48.114;11.522;2024-01-10T07:09:36;8.90;40.30
28358;DHT22;15605;48.114;11.522;2024-01-10T07:12:16;8.90;40.30
28358;DHT22;15605;48.114;11.522;2024-01-10T07:14:54;8.90;40.40
28358;DHT22;15605;48.114;11.522;2024-01-10T07:17:30;8.90;40.40
28358;DHT22;15605;48.114;11.522;2024-01-10T07:20:12;8.90;40.40
28358;DHT22;15605;48.114;11.522;2024-01-10T07:22:53;9.00;40.40
28358;DHT22;15605;48.114;11.522;2024-01-10T07:25:31;8.90;40.30
28358;DHT22;15605;48.114;11.522;2024-01-10T07:28:05;8.90;40.30
28358;DHT22;15605;48.114;11.522;2024-01-10T07:31:00;9.00;40.40
28358;DHT22;15605;48.114;11.522;2024-01-10T07:33:35;9.00;40.40
28358;DHT22;15605;48.114;11.522;2024-01-10T07:36:09;9.00;40.40
28358;DHT22;15605;48.114;11.522;2024-01-10T07:39:02;9.00;40.40
28358;DHT22;15605;48.114;11.522;2024-01-10T07:41:34;9.00;40.30
28358;DHT22;15605;48.114;11.522;2024-01-10T07:44:10;9.00;40.20
28358;DHT22;15605;48.114;11.522;2024-01-10T07:46:47;9.00;40.20
28358;DHT22;15605;48.114;11.522;2024-01-10T07:49:21;9.10;40.20
28358;DHT22;15605;48.114;11.522;2024-01-10T07:51:55;9.10;40.20
28358;DHT22;15605;48.114;11.522;2024-01-10T07:54:27;9.10;40.10
28358;DHT22;15605;48.114;11.522;2024-01-10T07:56:59;9.10;40.10
28358;DHT22;15605;48.114;11.522;2024-01-10T07:59:32;9.10;40.10
28358;DHT22;15605;48.114;11.522;2024-01-10T08:02:03;9.00;40.10
28358;DHT22;15605;48.114;11.522;2024-01-10T08:04:35;9.00;40.20
28358;DHT22;15605;48.114;11.522;2024-01-10T08:07:16;9.00;40.30
28358;DHT22;15605;48.114;11.522;2024-01-10T08:09:48;9.00;40.20
28358;DHT22;15605;48.114;11.522;2024-01-10T08:12:19;9.00;40.20
28358;DHT22;15605;48.114;11.522;2024-01-10T08:14:55;9.00;40.30
28358;DHT22;15605;48.114;11.522;2024-01-10T08:17:30;9.00;40.20
28358;DHT22;15605;48.114;11.522;2024-01-10T08:20:11;9.10;40.10
28358;DHT22;15605;48.114;11.522;2024-01-10T08:22:45;9.10;40.00
28358;DHT22;15605;48.114;11.522;2024-01-10T08:25:17;9.10;39.90
28358;DHT22;15605;48.114;11.522;2024-01-10T08:27:50;9.10;40.00
28358;DHT22;15605;48.114;11.522;2024-01-10T08:30:28;9.10;39.90
28358;DHT22;15605;48.114;11.522;2024-01-10T08:33:06;9.10;40.00
28358;DHT22;15605;48.114;11.522;2024-01-10T08:35:41;9.10;40.00
28358;DHT22;15605;48.114;11.522;2024-01-10T08:38:14;9.10;40.00
28358;DHT22;15605;48.114;11.522;2024-01-10T08:40:46;9.10;40.10
28358;DHT22;15605;48.114;11.522;2024-01-10T08:43:19;9.00;40.00
28358;DHT22;15605;48.114;11.522;2024-01-10T08:45:52;9.00;40.00
28358;DHT22;15605;48.114;11.522;2024-01-10T08:48:26;9.10;40.10
28358;DHT22;15605;48.114;11.522;2024-01-10T08:50:58;9.10;40.00
28358;DHT22;15605;48.114;11.522;2024-01-10T08:53:35;9.10;40.00
28358;DHT22;15605;48.114;11.522;2024-01-10T08:56:08;9.10;40.10
28358;DHT22;15605;48.114;11.522;2024-01-10T08:58:45;9.10;40.10
28358;DHT22;15605;48.114;11.522;2024-01-10T09:01:19;9.10;40.20
28358;DHT22;15605;48.114;11.522;2024-01-10T09:03:49;9.10;40.20
28358;DHT22;15605;48.114;11.522;2024-01-10T09:06:20;9.00;40.20
28358;DHT22;15605;48.114;11.522;2024-01-10T09:08:53;9.00;40.20
28358;DHT22;15605;48.114;11.522;2024-01-10T09:11:27;9.00;40.20
28358;DHT22;15605;48.114;11.522;2024-01-10T09:14:01;9.10;40.10
28358;DHT22;15605;48.114;11.522;2024-01-10T09:16:33;9.10;40.10
28358;DHT22;15605;48.114;11.522;2024-01-10T09:19:14;9.10;40.20
28358;DHT22;15605;48.114;11.522;2024-01-10T09:21:53;9.00;40.20
28358;DHT22;15605;48.114;11.522;2024-01-10T09:24:38;9.10;40.20
28358;DHT22;15605;48.114;11.522;2024-01-10T09:27:18;9.10;40.20
28358;DHT22;15605;48.114;11.522;2024-01-10T09:29:51;9.10;40.10
28358;DHT22;15605;48.114;11.522;2024-01-10T09:32:26;9.10;40.20
28358;DHT22;15605;48.114;11.522;2024-01-10T09:34:59;9.10;40.30
28358;DHT22;15605;48.114;11.522;2024-01-10T09:37:39;9.10;40.30
28358;DHT22;15605;48.114;11.522;2024-01-10T09:40:19;9.10;40.20
28358;DHT22;15605;48.114;11.522;2024-01-10T09:42:58;9.10;40.20
28358;DHT22;15605;48.114;11.522;2024-01-10T09:45:36;9.10;40.20
28358;DHT22;15605;48.114;11.522;2024-01-10T09:48:21;9.10;40.30
28358;DHT22;15605;48.114;11.522;2024-01-10T09:50:56;9.10;40.30
28358;DHT22;15605;48.114;11.522;2024-01-10T09:53:53;9.10;40.50
28358;DHT22;15605;48.114;11.522;2024-01-10T09:56:49;9.10;40.50
28358;DHT22;15605;48.114;11.522;2024-01-10T09:59:27;9.10;40.50
28358;DHT22;15605;48.114;11.522;2024-01-10T10:02:13;9.10;40.40
28358;DHT22;15605;48.114;11.522;2024-01-10T10:05:21;9.10;40.50
28358;DHT22;15605;48.114;11.522;2024-01-10T10:08:11;9.10;40.60
28358;DHT22;15605;48.114;11.522;2024-01-10T10:11:17;9.10;40.50
28358;DHT22;15605;48.114;11.522;2024-01-10T10:14:34;9.10;40.60
28358;DHT22;15605;48.114;11.522;2024-01-10T10:17:49;9.00;40.60
28358;DHT22;15605;48.114;11.522;2024-01-10T10:20:46;9.10;40.60
28358;DHT22;15605;48.114;11.522;2024-01-10T10:24:16;9.10;40.60
28358;DHT22;15605;48.114;11.522;2024-01-10T10:27:12;9.10;40.60
28358;DHT22;15605;48.114;11.522;2024-01-10T10:29:57;9.10;40.60
28358;DHT22;15605;48.114;11.522;2024-01-10T10:32:59;9.10;40.70
28358;DHT22;15605;48.114;11.522;2024-01-10T10:35:40;9.10;40.70
28358;DHT22;15605;48.114;11.522;2024-01-10T10:38:11;9.10;41.40
28358;DHT22;15605;48.114;11.522;2024-01-10T10:40:50;9.20;40.80
28358;DHT22;15605;48.114;11.522;2024-01-10T10:43:41;9.10;40.70
28358;DHT22;15605;48.114;11.522;2024-01-10T10:46:23;9.10;41.00
28358;DHT22;15605;48.114;11.522;2024-01-10T10:49:13;9.10;41.00
28358;DHT22;15605;48.114;11.522;2024-01-10T10:51:54;9.10;41.00
28358;DHT22;15605;48.114;11.522;2024-01-10T10:54:42;9.10;41.00
28358;DHT22;15605;48.114;11.522;2024-01-10T10:57:22;9.10;41.00
28358;DHT22;15605;48.114;11.522;2024-01-10T11:00:02;9.10;41.00
28358;DHT22;15605;48.114;11.522;2024-01-10T11:02:42;9.10;41.00
28358;DHT22;15605;48.114;11.522;2024-01-10T11:05:14;9.20;41.00
28358;DHT22;15605;48.114;11.522;2024-01-10T11:07:53;9.10;41.10
28358;DHT22;15605;48.114;11.522;2024-01-10T11:10:34;9.10;41.10
28358;DHT22;15605;48.114;11.522;2024-01-10T11:13:32;9.10;41.20
28358;DHT22;15605;48.114;11.522;2024-01-10T11:16:29;9.10;41.20
28358;DHT22;15605;48.114;11.522;2024-01-10T11:25:07;9.20;41.30
28358;DHT22;15605;48.114;11.522;2024-01-10T11:27:39;9.20;41.30
28358;DHT22;15605;48.114;11.522;2024-01-10T11:30:13;9.20;41.40
28358;DHT22;15605;48.114;11.522;2024-01-10T11:32:44;9.20;41.30
28358;DHT22;15605;48.114;11.522;2024-01-10T11:35:23;9.20;41.40
28358;DHT22;15605;48.114;11.522;2024-01-10T11:38:02;9.10;41.40
28358;DHT22;15605;48.114;11.522;2024-01-10T11:40:49;9.20;41.40
28358;DHT22;15605;48.114;11.522;2024-01-10T11:43:26;9.10;41.50
28358;DHT22;15605;48.114;11.522;2024-01-10T11:46:05;9.20;41.50
28358;DHT22;15605;48.114;11.522;2024-01-10T11:48:39;9.20;41.60
28358;DHT22;15605;48.114;11.522;2024-01-10T11:51:19;9.10;41.50
28358;DHT22;15605;48.114;11.522;2024-01-10T11:53:55;9.10;41.60
28358;DHT22;15605;48.114;11.522;2024-01-10T11:56:45;9.10;41.60
28358;DHT22;15605;48.114;11.522;2024-01-10T11:59:25;9.10;41.70
28358;DHT22;15605;48.114;11.522;2024-01-10T12:02:03;9.10;41.80
28358;DHT22;15605;48.114;11.522;2024-01-10T12:04:38;9.10;41.80
28358;DHT22;15605;48.114;11.522;2024-01-10T12:07:24;9.10;41.80
28358;DHT22;15605;48.114;11.522;2024-01-10T12:10:06;9.10;41.90
28358;DHT22;15605;48.114;11.522;2024-01-10T12:12:52;9.10;41.90
28358;DHT22;15605;48.114;11.522;2024-01-10T12:15:35;9.10;41.90
28358;DHT22;15605;48.114;11.522;2024-01-10T12:18:10;9.10;42.00
28358;DHT22;15605;48.114;11.522;2024-01-10T12:20:43;9.10;42.00
28358;DHT22;15605;48.114;11.522;2024-01-10T12:23:15;9.20;42.10
28358;DHT22;15605;48.114;11.522;2024-01-10T12:26:02;9.10;42.10
28358;DHT22;15605;48.114;11.522;2024-01-10T12:29:01;9.20;42.20
28358;DHT22;15605;48.114;11.522;2024-01-10T12:31:38;9.10;42.20
28358;DHT22;15605;48.114;11.522;2024-01-10T12:34:12;9.20;42.20
28358;DHT22;15605;48.114;11.522;2024-01-10T12:36:54;9.20;42.20
28358;DHT22;15605;48.114;11.522;2024-01-10T12:39:26;9.20;42.30
28358;DHT22;15605;48.114;11.522;2024-01-10T12:42:04;9.20;42.20
28358;DHT22;15605;48.114;11.522;2024-01-10T12:44:36;9.20;42.30
28358;DHT22;15605;48.114;11.522;2024-01-10T12:47:17;9.10;42.40
28358;DHT22;15605;48.114;11.522;2024-01-10T12:49:51;9.10;42.50
28358;DHT22;15605;48.114;11.522;2024-01-10T12:52:24;9.10;42.50
28358;DHT22;15605;48.114;11.522;2024-01-10T12:54:56;9.20;42.60
28358;DHT22;15605;48.114;11.522;2024-01-10T12:57:29;9.20;42.60
28358;DHT22;15605;48.114;11.522;2024-01-10T13:00:02;9.20;42.50
28358;DHT22;15605;48.114;11.522;2024-01-10T13:02:42;9.20;42.60
28358;DHT22;15605;48.114;11.522;2024-01-10T13:05:14;9.20;42.60
28358;DHT22;15605;48.114;11.522;2024-01-10T13:07:45;9.20;42.70
28358;DHT22;15605;48.114;11.522;2024-01-10T13:10:17;9.20;42.60
28358;DHT22;15605;48.114;11.522;2024-01-10T13:12:47;9.20;42.60
28358;DHT22;15605;48.114;11.522;2024-01-10T13:15:21;9.20;42.30
28358;DHT22;15605;48.114;11.522;2024-01-10T13:17:52;9.20;42.80
28358;DHT22;15605;48.114;11.522;2024-01-10T13:20:25;9.20;42.80
28358;DHT22;15605;48.114;11.522;2024-01-10T13:23:00;9.20;42.80
28358;DHT22;15605;48.114;11.522;2024-01-10T13:25:33;9.20;42.90
28358;DHT22;15605;48.114;11.522;2024-01-10T13:28:04;9.20;42.80
28358;DHT22;15605;48.114;11.522;2024-01-10T13:30:35;9.20;42.80
28358;DHT22;15605;48.114;11.522;2024-01-10T13:33:06;9.20;42.80
28358;DHT22;15605;48.114;11.522;2024-01-10T13:35:39;9.20;42.80
28358;DHT22;15605;48.114;11.522;2024-01-10T13:38:11;9.10;42.90
28358;DHT22;15605;48.114;11.522;2024-01-10T13:40:44;9.10;42.90
28358;DHT22;15605;48.114;11.522;2024-01-10T13:43:17;9.20;42.90
28358;DHT22;15605;48.114;11.522;2024-01-10T13:45:49;9.20;43.00
28358;DHT22;15605;48.114;11.522;2024-01-10T13:48:21;9.10;43.10
28358;DHT22;15605;48.114;11.522;2024-01-10T13:51:01;9.10;43.10
28358;DHT22;15605;48.114;11.522;2024-01-10T13:53:38;9.20;43.10
28358;DHT22;15605;48.114;11.522;2024-01-10T13:56:13;9.10;43.10
28358;DHT22;15605;48.114;11.522;2024-01-10T13:58:44;9.10;43.20
28358;DHT22;15605;48.114;11.522;2024-01-10T14:01:15;9.20;43.20
28358;DHT22;15605;48.114;11.522;2024-01-10T14:03:47;9.10;43.20
28358;DHT22;15605;48.114;11.522;2024-01-10T14:06:18;9.10;43.20
28358;DHT22;15605;48.114;11.522;2024-01-10T14:08:50;9.20;43.20
28358;DHT22;15605;48.114;11.522;2024-01-10T14:11:24;9.10;43.30
28358;DHT22;15605;48.114;11.522;2024-01-10T14:13:55;9.10;43.30
28358;DHT22;15605;48.114;11.522;2024-01-10T14:16:27;9.10;43.20
28358;DHT22;15605;48.114;11.522;2024-01-10T14:19:01;9.10;43.30
28358;DHT22;15605;48.114;11.522;2024-01-10T14:21:34;9.10;43.30
28358;DHT22;15605;48.114;11.522;2024-01-10T14:24:05;9.20;43.30
28358;DHT22;15605;48.114;11.522;2024-01-10T14:26:36;9.20;43.30
28358;DHT22;15605;48.114;11.522;2024-01-10T14:29:09;9.20;43.30
28358;DHT22;15605;48.114;11.522;2024-01-10T14:31:40;9.20;43.40
28358;DHT22;15605;48.114;11.522;2024-01-10T14:34:13;9.20;43.40
28358;DHT22;15605;48.114;11.522;2024-01-10T14:36:45;9.20;43.40
28358;DHT22;15605;48.114;11.522;2024-01-10T14:39:20;9.20;43.40
28358;DHT22;15605;48.114;11.522;2024-01-10T14:41:53;9.10;43.40
28358;DHT22;15605;48.114;11.522;2024-01-10T14:44:26;9.20;43.40
28358;DHT22;15605;48.114;11.522;2024-01-10T14:46:57;9.20;43.50
28358;DHT22;15605;48.114;11.522;2024-01-10T14:49:31;9.10;43.40
28358;DHT22;15605;48.114;11.522;2024-01-10T14:52:05;9.10;43.30
28358;DHT22;15605;48.114;11.522;2024-01-10T14:54:40;9.20;43.40
28358;DHT22;15605;48.114;11.522;2024-01-10T14:57:13;9.10;43.50
28358;DHT22;15605;48.114;11.522;2024-01-10T14:59:45;9.20;43.40
28358;DHT22;15605;48.114;11.522;2024-01-10T15:02:18;9.20;43.40
28358;DHT22;15605;48.114;11.522;2024-01-10T15:04:51;9.10;43.50
28358;DHT22;15605;48.114;11.522;2024-01-10T15:07:24;9.00;43.50
28358;DHT22;15605;48.114;11.522;2024-01-10T15:09:58;9.10;43.60
28358;DHT22;15605;48.114;11.522;2024-01-10T15:12:36;9.00;43.70
28358;DHT22;15605;48.114;11.522;2024-01-10T15:15:13;9.00;43.70
28358;DHT22;15605;48.114;11.522;2024-01-10T15:17:50;9.00;43.70
28358;DHT22;15605;48.114;11.522;2024-01-10T15:20:21;9.00;43.70
28358;DHT22;15605;48.114;11.522;2024-01-10T15:22:55;9.00;43.70
28358;DHT22;15605;48.114;11.522;2024-01-10T15:25:27;9.00;43.60
28358;DHT22;15605;48.114;11.522;2024-01-10T15:28:06;9.00;43.60
28358;DHT22;15605;48.114;11.522;2024-01-10T15:30:44;9.00;43.60
28358;DHT22;15605;48.114;11.522;2024-01-10T15:33:22;9.00;43.70
28358;DHT22;15605;48.114;11.522;2024-01-10T15:35:55;9.00;43.60
28358;DHT22;15605;48.114;11.522;2024-01-10T15:38:28;9.00;43.60
28358;DHT22;15605;48.114;11.522;2024-01-10T15:41:01;9.00;43.50
28358;DHT22;15605;48.114;11.522;2024-01-10T15:43:34;9.10;43.60
28358;DHT22;15605;48.114;11.522;2024-01-10T15:46:06;9.00;43.60
28358;DHT22;15605;48.114;11.522;2024-01-10T15:48:37;9.00;43.60
28358;DHT22;15605;48.114;11.522;2024-01-10T15:51:09;9.00;43.70
28358;DHT22;15605;48.114;11.522;2024-01-10T15:53:41;9.00;43.70
28358;DHT22;15605;48.114;11.522;2024-01-10T15:56:18;9.00;43.80
28358;DHT22;15605;48.114;11.522;2024-01-10T15:58:50;8.90;43.80
28358;DHT22;15605;48.114;11.522;2024-01-10T16:01:24;9.00;43.90
28358;DHT22;15605;48.114;11.522;2024-01-10T16:03:59;9.00;43.80
28358;DHT22;15605;48.114;11.522;2024-01-10T16:06:39;9.00;43.90
28358;DHT22;15605;48.114;11.522;2024-01-10T16:09:13;9.00;43.90
28358;DHT22;15605;48.114;11.522;2024-01-10T16:11:45;9.00;43.90
28358;DHT22;15605;48.114;11.522;2024-01-10T16:14:17;9.00;44.00
28358;DHT22;15605;48.114;11.522;2024-01-10T16:16:48;8.90;44.00
28358;DHT22;15605;48.114;11.522;2024-01-10T16:19:19;9.00;44.00
28358;DHT22;15605;48.114;11.522;2024-01-10T16:21:52;9.00;44.00
28358;DHT22;15605;48.114;11.522;2024-01-10T16:24:26;9.00;44.00
28358;DHT22;15605;48.114;11.522;2024-01-10T16:27:02;9.00;44.00
28358;DHT22;15605;48.114;11.522;2024-01-10T16:29:35;9.00;44.00
28358;DHT22;15605;48.114;11.522;2024-01-10T16:32:10;9.00;44.00
28358;DHT22;15605;48.114;11.522;2024-01-10T16:34:43;9.00;44.00
28358;DHT22;15605;48.114;11.522;2024-01-10T16:37:19;9.00;44.00
28358;DHT22;15605;48.114;11.522;2024-01-10T16:39:53;9.00;44.10
28358;DHT22;15605;48.114;11.522;2024-01-10T16:42:27;9.00;44.00